A- A+ FrançaisEnglishEspañol中国

Services sur Internet Soldes sur Internet Des idées de cadeaux Météo Météo aéro

La météo à : Autours de vous Tarbes-Lourdes-PyrénéesValreas-Visan Besancon-La-VezeRennes-St-Jacques

La météo aéronautique pour les pilotes, la préparation du vol avec les METAR (METeorological Aerodrome Report, message d'observation des conditions météorologiques pour l'aviation) et Les TAF (Terminal Aerodrome Forecast : message de prévision à court terme des conditions météorologiques pour l'aviation). Et les autres ressources comme les VAC (Visual Approch Chart) et les NOTAM (Notice To Airman) pour préprer les vols.

Aéroport Gafsa (Tunisie) / OACI DTTF/ IATA GAF

L'altitude de l'aéroport Gafsa est de 323 m = 1060 ft. Il est situé à proximité de Gafsa (Tunisie). La météo générale à 5 jours est disponible pour Al Metlaoui situé à 40.2 km.

METAR de l'aéroport Gafsa - DTTF

DTTF 092300Z 32007KT 290V&A???JUN Z6M??6(TL?20

Décodage du METAR de l'aéroport Gafsa (TN)

METAR émis par DTTF le mardi 10 décembre 2019 à 23:00 heure TU. Attention ce METAR est obsolète car il a été émis il y a 53 minutes.

La visibilité est de 0 km = 0 sm.

La température est de °C = 32 °F et le point rosée est de °C = 32 °F . Ce qui correspond à 100% d'humidité relative.

Le QNH est de hPa = 0 inHg

Vent de 7 kt = 13 km/h, orienté à 320°.

Pas de nuages.

290V&A JUN Z6M 6(TL 20

TAF de l'aéroport Gafsa - DTTF

DTTF 092100Z 0922/1007 04005KT CAVOK

DTTF 092100Z 0922/1007 04005KT visibilité supérieure à 10km, aucun nuage à une hauteur inférieure à 5000 ft ou sous l'altitude minimale de secteur et aucun cumulonimbus ou cumulus bourgeonnant, quelle que soit leur altitude

Aéroport à proximité de Gafsa

Météo générale à 5 jours à Al Metlaoui (40.2 km)Aéroport Tozeur Nefta (85 km)Aéroport Tebessa (129 km)Aéroport Gabes (133 km)Aéroport Sfax Thyna (174 km)Aéroport Jerba Zarsis (190 km)Aéroport El Qued Guemar (214 km)

Vue aérienne de l'aéroport Gafsa

NOTAM de l'aéroport Gafsa

Les NOTAM sont fournis sans aucune garantie de leur actualité. Le pilote est le seul responsable de la vérification de sa validité avant de l'utiliser opérationnellement pour préparer un vol ou l'utiliser lors de sa navigation.

Pas de NOTAM

Sources des données